South Fork, PA (15956)

7:07 AM EST on January 26, 2015 (GMT -0500)
APRSWXNET Mineral Point PA US | Change Station
CLOSE
Current Station
Personal Weather Station
Location: South Fork, PA
Elevation: 2273 ft
Nearby Weather Stations
Active Advisory: Winter Weather Advisory Active Notice: Public Information Statement

Elev 2273 ft 40.40 °N, 78.80 °W | Updated 37 minutes ago

Snow
Snow
24 °F
Feels Like 24 °F
N
3
Wind Variable Wind from ESE
Gusts 8.0 mph

Today
High -- | Low -- °F
--% Chance of Precip.
Yesterday
High -- | Low -- °F
Precip. -- in
7:29 AM 5:26 PM
Waxing Crescent, 42% visible
Pressure 29.66 in
Visibility 2.0 miles
Clouds Few 800 ft
Overcast 3500 ft
Windchill 24 °F
Dew Point 24 °F
Humidity 98%
Rainfall 0.00 in
Snow Depth Not available.
UV 0 out of 12
Pollen .10 out of 12
Air Quality Not available.
Flu Activity Not available.
SPECI KJST 261201Z AUTO 09006KT 2SM -SN BR FEW008 OVC035 M06/M07 A2966 RMK AO2 P0000 T10561072

More Conditions Fewer Conditions

Pressure 29.66 in
Visibility 2.0 miles
Clouds Few 800 ft
Overcast 3500 ft
Windchill 24 °F
Dew Point 24 °F
Humidity 98%
Rainfall 0.00 in
Snow Depth Not available.
UV 0 out of 12
Pollen .10 out of 12
Air Quality Not available.
Flu Activity Not available.
SPECI KJST 261201Z AUTO 09006KT 2SM -SN BR FEW008 OVC035 M06/M07 A2966 RMK AO2 P0000 T10561072

More Conditions Fewer Conditions

10-Day Weather Forecast

Almanac

Astronomy

Jan. 26, 2015 Rise Set
Actual Time
Civil Twilight
Nautical Twilight
Astronomical Twilight
Moon
Length of Visible Light
Length of Day
Tomorrow will be .
, % of the Moon is Illuminated

Today's Extremes

State Highs State Lows

Community

WunderPhotos

Upload Photos

1,790,175 photos uploaded!

WunderBlogs® & News

Nearby

Air Quality

  Air Quality AQ Index Pollutant
Not available.

Snow Depth

Station Depth Elevation

Earthquake Activity

City Distance Mag. Time & Date
Minimum magnitude displayed is 2.5.

Coastal Water Temperatures

Place Temperature

Nearby Weather Stations